Messwerte Thohoyandou

Temperatur

Temperatur
°C
1575500400 1.00 1.00 15
1575504000 2.00 2.00 14
1575507600 3.00 3.00 14
1575511200 4.00 4.00 14
1575514800 5.00 5.00 14
1575518400 6.00 6.00 14
1575522000 7.00 7.00 14
1575525600 8.00 8.00 15
1575529200 9.00 9.00 15
1575532800 10.00 10.00 15
1575536400 11.00 11.00 15
1575540000 12.00 12.00 16
1575543600 13.00 13.00 16
1575547200 14.00 14.00 16
1575550800 15.00 15.00
1575554400 16.00 16.00 16
1575558000 17.00 17.00 16
1575561600 18.00 18.00 16
1575565200 19.00 19.00
1575568800 20.00 20.00
1575572400 21.00 21.00 16
1575576000 22.00 22.00 16
1575579600 23.00 23.00 16
1575583200 0.00 0.00 16

Aktuellste Messwerte

Temperatur
16 °C
Feuchtigkeit
94 %
Wind
5 km/hWindrichtung: West
Luftdruck
1027 hPa
Messzeit: 6. Dezember 2019, 0.00Datenquelle: METAR

Weitere Messstationen in der Nähe

Messstation Temperatur Entfernung
Tzaneen 14 °C 103 km
Hoedspruit - 175 km
Kruger Mpumalanga Intl 14 °C 277 km
Nelspruit - 288 km
Selibe-Phikwe - 294 km
Ellisras 16 °C 295 km
Witbank - 346 km

Wind

Windrichtung Böen Mittelwind
° km/h km/h
1575500400 1.00 0.00 - 1.00 130° 5
1575504000 2.00 1.00 - 2.00 150° 10
1575507600 3.00 2.00 - 3.00 90° 5
1575511200 4.00 3.00 - 4.00 140° 5
1575514800 5.00 4.00 - 5.00 120° 10
1575518400 6.00 5.00 - 6.00 130° 10
1575522000 7.00 6.00 - 7.00 120° 10
1575525600 8.00 7.00 - 8.00 140° 15
1575529200 9.00 8.00 - 9.00 130° 10
1575532800 10.00 9.00 - 10.00 130° 5
1575536400 11.00 10.00 - 11.00 140° 5
1575540000 12.00 11.00 - 12.00 130° 15
1575543600 13.00 12.00 - 13.00 130° 10
1575547200 14.00 13.00 - 14.00 130° 10
1575550800 15.00 14.00 - 15.00
1575554400 16.00 15.00 - 16.00 130° 5
1575558000 17.00 16.00 - 17.00 120° 5
1575561600 18.00 17.00 - 18.00 70° 5
1575565200 19.00 18.00 - 19.00
1575568800 20.00 19.00 - 20.00
1575572400 21.00 20.00 - 21.00 320° 5
1575576000 22.00 21.00 - 22.00 290° 5
1575579600 23.00 22.00 - 23.00 290° 5
1575583200 0.00 23.00 - 0.00 280° 5

Ihre Wetterstation

Fehlt Ihre Wetterstation auf unserem Portal?

Schreiben Sie an network@meteonews.ch

Klima

Wann ist es am wärmsten? Wann regnet es am wenigsten? Unsere Klimadaten geben Auskunft.